sensor_id;sensor_type;location;lat;lon;timestamp;P1;durP1;ratioP1;P2;durP2;ratioP2
56911;SDS011;42800;53.928;27.662;2022-08-01T00:01:23;4.35;;;2.65;;
56911;SDS011;42800;53.928;27.662;2022-08-01T00:03:49;6.93;;;3.65;;
56911;SDS011;42800;53.928;27.662;2022-08-01T00:06:15;4.07;;;3.42;;
56911;SDS011;42800;53.928;27.662;2022-08-01T00:08:41;7.60;;;3.28;;
56911;SDS011;42800;53.928;27.662;2022-08-01T00:11:08;4.43;;;3.08;;
56911;SDS011;42800;53.928;27.662;2022-08-01T00:13:35;5.60;;;2.88;;
56911;SDS011;42800;53.928;27.662;2022-08-01T00:16:01;7.15;;;2.97;;
56911;SDS011;42800;53.928;27.662;2022-08-01T00:18:28;5.00;;;3.67;;
56911;SDS011;42800;53.928;27.662;2022-08-01T00:20:54;7.18;;;2.80;;
56911;SDS011;42800;53.928;27.662;2022-08-01T00:23:20;5.55;;;3.25;;
56911;SDS011;42800;53.928;27.662;2022-08-01T00:25:46;6.25;;;3.35;;
56911;SDS011;42800;53.928;27.662;2022-08-01T00:28:13;3.88;;;2.70;;
56911;SDS011;42800;53.928;27.662;2022-08-01T00:30:40;6.70;;;2.75;;
56911;SDS011;42800;53.928;27.662;2022-08-01T00:33:06;5.65;;;3.78;;
56911;SDS011;42800;53.928;27.662;2022-08-01T00:35:32;5.28;;;3.38;;
56911;SDS011;42800;53.928;27.662;2022-08-01T00:37:58;7.05;;;2.78;;
56911;SDS011;42800;53.928;27.662;2022-08-01T00:40:25;4.78;;;2.88;;
56911;SDS011;42800;53.928;27.662;2022-08-01T00:42:51;4.57;;;2.60;;
56911;SDS011;42800;53.928;27.662;2022-08-01T00:45:17;11.23;;;3.67;;
56911;SDS011;42800;53.928;27.662;2022-08-01T00:47:44;4.57;;;2.70;;
56911;SDS011;42800;53.928;27.662;2022-08-01T00:50:11;4.88;;;2.67;;
56911;SDS011;42800;53.928;27.662;2022-08-01T00:52:37;4.43;;;3.28;;
56911;SDS011;42800;53.928;27.662;2022-08-01T00:55:05;5.78;;;2.85;;
56911;SDS011;42800;53.928;27.662;2022-08-01T00:57:33;3.92;;;3.05;;
56911;SDS011;42800;53.928;27.662;2022-08-01T00:59:59;4.80;;;2.90;;
56911;SDS011;42800;53.928;27.662;2022-08-01T01:02:25;3.20;;;2.88;;
56911;SDS011;42800;53.928;27.662;2022-08-01T01:04:52;4.32;;;3.65;;
56911;SDS011;42800;53.928;27.662;2022-08-01T01:07:19;5.90;;;2.80;;
56911;SDS011;42800;53.928;27.662;2022-08-01T01:09:54;4.78;;;2.67;;
56911;SDS011;42800;53.928;27.662;2022-08-01T01:12:27;4.13;;;3.10;;
56911;SDS011;42800;53.928;27.662;2022-08-01T01:14:58;4.72;;;2.95;;
56911;SDS011;42800;53.928;27.662;2022-08-01T01:17:32;7.30;;;2.90;;
56911;SDS011;42800;53.928;27.662;2022-08-01T01:20:03;5.05;;;3.47;;
56911;SDS011;42800;53.928;27.662;2022-08-01T01:22:36;5.18;;;2.90;;
56911;SDS011;42800;53.928;27.662;2022-08-01T01:28:08;5.50;;;2.58;;
56911;SDS011;42800;53.928;27.662;2022-08-01T01:33:08;5.25;;;2.85;;
56911;SDS011;42800;53.928;27.662;2022-08-01T01:35:38;9.40;;;2.78;;
56911;SDS011;42800;53.928;27.662;2022-08-01T01:38:13;3.65;;;2.75;;
56911;SDS011;42800;53.928;27.662;2022-08-01T01:40:42;8.20;;;3.22;;
56911;SDS011;42800;53.928;27.662;2022-08-01T01:43:10;7.97;;;3.72;;
56911;SDS011;42800;53.928;27.662;2022-08-01T01:45:37;2.75;;;2.50;;
56911;SDS011;42800;53.928;27.662;2022-08-01T01:48:06;7.05;;;2.80;;
56911;SDS011;42800;53.928;27.662;2022-08-01T01:50:35;7.18;;;2.80;;
56911;SDS011;42800;53.928;27.662;2022-08-01T01:53:01;4.90;;;3.20;;
56911;SDS011;42800;53.928;27.662;2022-08-01T01:55:29;4.72;;;2.95;;
56911;SDS011;42800;53.928;27.662;2022-08-01T01:57:57;5.15;;;2.47;;
56911;SDS011;42800;53.928;27.662;2022-08-01T02:00:25;4.15;;;3.40;;
56911;SDS011;42800;53.928;27.662;2022-08-01T02:02:55;3.42;;;2.67;;
56911;SDS011;42800;53.928;27.662;2022-08-01T02:05:23;4.05;;;2.55;;
56911;SDS011;42800;53.928;27.662;2022-08-01T02:07:51;6.78;;;3.10;;
56911;SDS011;42800;53.928;27.662;2022-08-01T02:10:20;4.20;;;2.55;;
56911;SDS011;42800;53.928;27.662;2022-08-01T02:12:47;5.13;;;2.78;;
56911;SDS011;42800;53.928;27.662;2022-08-01T02:15:17;9.60;;;3.65;;
56911;SDS011;42800;53.928;27.662;2022-08-01T02:17:46;3.10;;;2.80;;
56911;SDS011;42800;53.928;27.662;2022-08-01T02:20:15;6.68;;;3.50;;
56911;SDS011;42800;53.928;27.662;2022-08-01T02:22:44;4.07;;;3.38;;
56911;SDS011;42800;53.928;27.662;2022-08-01T02:27:47;4.78;;;3.83;;
56911;SDS011;42800;53.928;27.662;2022-08-01T02:30:17;4.18;;;2.92;;
56911;SDS011;42800;53.928;27.662;2022-08-01T02:32:46;3.78;;;2.70;;
56911;SDS011;42800;53.928;27.662;2022-08-01T02:35:18;5.22;;;2.67;;
56911;SDS011;42800;53.928;27.662;2022-08-01T02:37:48;5.45;;;3.03;;
56911;SDS011;42800;53.928;27.662;2022-08-01T02:40:15;5.57;;;2.83;;
56911;SDS011;42800;53.928;27.662;2022-08-01T02:42:43;5.65;;;3.20;;
56911;SDS011;42800;53.928;27.662;2022-08-01T02:45:13;6.38;;;3.20;;
56911;SDS011;42800;53.928;27.662;2022-08-01T02:47:42;3.65;;;2.67;;
56911;SDS011;42800;53.928;27.662;2022-08-01T02:50:12;5.22;;;3.28;;
56911;SDS011;42800;53.928;27.662;2022-08-01T02:52:40;4.13;;;3.30;;
56911;SDS011;42800;53.928;27.662;2022-08-01T02:55:09;5.90;;;2.42;;
56911;SDS011;42800;53.928;27.662;2022-08-01T02:57:37;6.53;;;2.85;;
56911;SDS011;42800;53.928;27.662;2022-08-01T03:00:06;6.10;;;3.30;;
56911;SDS011;42800;53.928;27.662;2022-08-01T03:02:34;8.07;;;3.50;;
56911;SDS011;42800;53.928;27.662;2022-08-01T03:05:03;3.95;;;3.00;;
56911;SDS011;42800;53.928;27.662;2022-08-01T03:07:30;6.13;;;2.95;;
56911;SDS011;42800;53.928;27.662;2022-08-01T03:09:58;3.38;;;3.08;;
56911;SDS011;42800;53.928;27.662;2022-08-01T03:12:27;6.05;;;2.70;;
56911;SDS011;42800;53.928;27.662;2022-08-01T03:14:58;3.60;;;2.60;;
56911;SDS011;42800;53.928;27.662;2022-08-01T03:17:26;5.18;;;3.03;;
56911;SDS011;42800;53.928;27.662;2022-08-01T03:19:54;2.75;;;2.47;;
56911;SDS011;42800;53.928;27.662;2022-08-01T03:22:23;3.13;;;2.30;;
56911;SDS011;42800;53.928;27.662;2022-08-01T03:24:52;5.97;;;3.00;;
56911;SDS011;42800;53.928;27.662;2022-08-01T03:27:19;9.40;;;2.70;;
56911;SDS011;42800;53.928;27.662;2022-08-01T03:29:48;3.00;;;2.80;;
56911;SDS011;42800;53.928;27.662;2022-08-01T03:32:16;7.75;;;2.80;;
56911;SDS011;42800;53.928;27.662;2022-08-01T03:34:43;4.82;;;3.13;;
56911;SDS011;42800;53.928;27.662;2022-08-01T03:37:11;9.07;;;2.45;;
56911;SDS011;42800;53.928;27.662;2022-08-01T03:39:44;8.13;;;3.50;;
56911;SDS011;42800;53.928;27.662;2022-08-01T03:42:16;3.72;;;2.97;;
56911;SDS011;42800;53.928;27.662;2022-08-01T03:44:47;3.95;;;3.08;;
56911;SDS011;42800;53.928;27.662;2022-08-01T03:47:18;3.95;;;2.85;;
56911;SDS011;42800;53.928;27.662;2022-08-01T03:49:47;3.92;;;3.00;;
56911;SDS011;42800;53.928;27.662;2022-08-01T03:52:17;4.10;;;2.80;;
56911;SDS011;42800;53.928;27.662;2022-08-01T03:54:46;4.55;;;2.67;;
56911;SDS011;42800;53.928;27.662;2022-08-01T03:57:13;3.17;;;2.40;;
56911;SDS011;42800;53.928;27.662;2022-08-01T03:59:41;5.30;;;2.63;;
56911;SDS011;42800;53.928;27.662;2022-08-01T04:02:09;4.25;;;2.60;;
56911;SDS011;42800;53.928;27.662;2022-08-01T04:04:38;2.90;;;2.60;;
56911;SDS011;42800;53.928;27.662;2022-08-01T04:07:05;4.65;;;3.00;;
56911;SDS011;42800;53.928;27.662;2022-08-01T04:09:47;5.68;;;2.42;;
56911;SDS011;42800;53.928;27.662;2022-08-01T04:12:13;6.88;;;2.65;;
56911;SDS011;42800;53.928;27.662;2022-08-01T04:14:39;5.28;;;3.00;;
56911;SDS011;42800;53.928;27.662;2022-08-01T04:17:05;4.97;;;2.35;;
56911;SDS011;42800;53.928;27.662;2022-08-01T04:19:32;2.53;;;2.17;;
56911;SDS011;42800;53.928;27.662;2022-08-01T04:21:59;3.67;;;2.33;;
56911;SDS011;42800;53.928;27.662;2022-08-01T04:24:25;5.30;;;2.55;;
56911;SDS011;42800;53.928;27.662;2022-08-01T04:26:55;8.40;;;2.80;;
56911;SDS011;42800;53.928;27.662;2022-08-01T04:29:24;6.65;;;2.67;;
56911;SDS011;42800;53.928;27.662;2022-08-01T04:31:51;3.22;;;2.65;;
56911;SDS011;42800;53.928;27.662;2022-08-01T04:34:21;3.50;;;2.53;;
56911;SDS011;42800;53.928;27.662;2022-08-01T04:36:51;4.07;;;2.47;;
56911;SDS011;42800;53.928;27.662;2022-08-01T04:39:20;5.20;;;2.65;;
56911;SDS011;42800;53.928;27.662;2022-08-01T04:41:47;7.32;;;3.00;;
56911;SDS011;42800;53.928;27.662;2022-08-01T04:44:14;6.72;;;2.70;;
56911;SDS011;42800;53.928;27.662;2022-08-01T04:46:41;4.53;;;2.70;;
56911;SDS011;42800;53.928;27.662;2022-08-01T04:49:09;9.57;;;4.20;;
56911;SDS011;42800;53.928;27.662;2022-08-01T04:51:36;5.00;;;2.63;;
56911;SDS011;42800;53.928;27.662;2022-08-01T04:54:15;3.70;;;3.30;;
56911;SDS011;42800;53.928;27.662;2022-08-01T04:56:41;5.05;;;2.58;;
56911;SDS011;42800;53.928;27.662;2022-08-01T04:59:07;6.78;;;2.80;;
56911;SDS011;42800;53.928;27.662;2022-08-01T05:01:52;3.90;;;2.70;;
56911;SDS011;42800;53.928;27.662;2022-08-01T05:04:18;4.22;;;2.55;;
56911;SDS011;42800;53.928;27.662;2022-08-01T05:06:44;4.88;;;3.67;;
56911;SDS011;42800;53.928;27.662;2022-08-01T05:09:10;3.50;;;2.75;;
56911;SDS011;42800;53.928;27.662;2022-08-01T05:11:37;3.67;;;2.80;;
56911;SDS011;42800;53.928;27.662;2022-08-01T05:14:04;3.45;;;2.80;;
56911;SDS011;42800;53.928;27.662;2022-08-01T05:16:31;7.65;;;4.10;;
56911;SDS011;42800;53.928;27.662;2022-08-01T05:18:57;3.63;;;3.13;;
56911;SDS011;42800;53.928;27.662;2022-08-01T05:21:24;6.38;;;3.38;;
56911;SDS011;42800;53.928;27.662;2022-08-01T05:23:50;5.03;;;3.08;;
56911;SDS011;42800;53.928;27.662;2022-08-01T05:26:16;11.15;;;3.33;;
56911;SDS011;42800;53.928;27.662;2022-08-01T05:28:43;5.00;;;3.78;;
56911;SDS011;42800;53.928;27.662;2022-08-01T05:31:10;9.85;;;3.45;;
56911;SDS011;42800;53.928;27.662;2022-08-01T05:33:36;8.55;;;2.83;;
56911;SDS011;42800;53.928;27.662;2022-08-01T05:36:02;5.13;;;3.22;;
56911;SDS011;42800;53.928;27.662;2022-08-01T05:38:29;6.18;;;2.80;;
56911;SDS011;42800;53.928;27.662;2022-08-01T05:40:55;9.15;;;3.95;;
56911;SDS011;42800;53.928;27.662;2022-08-01T05:43:22;6.75;;;3.70;;
56911;SDS011;42800;53.928;27.662;2022-08-01T05:45:48;5.72;;;3.30;;
56911;SDS011;42800;53.928;27.662;2022-08-01T05:48:16;8.05;;;3.72;;
56911;SDS011;42800;53.928;27.662;2022-08-01T05:50:42;8.73;;;4.45;;
56911;SDS011;42800;53.928;27.662;2022-08-01T05:53:08;7.18;;;4.50;;
56911;SDS011;42800;53.928;27.662;2022-08-01T05:55:34;9.38;;;4.05;;
56911;SDS011;42800;53.928;27.662;2022-08-01T05:58:01;8.65;;;4.20;;
56911;SDS011;42800;53.928;27.662;2022-08-01T06:00:28;4.88;;;3.35;;
56911;SDS011;42800;53.928;27.662;2022-08-01T06:02:55;7.85;;;5.13;;
56911;SDS011;42800;53.928;27.662;2022-08-01T06:05:21;5.20;;;3.58;;
56911;SDS011;42800;53.928;27.662;2022-08-01T06:07:47;5.72;;;3.83;;
56911;SDS011;42800;53.928;27.662;2022-08-01T06:10:14;5.35;;;3.70;;
56911;SDS011;42800;53.928;27.662;2022-08-01T06:12:40;6.10;;;4.47;;
56911;SDS011;42800;53.928;27.662;2022-08-01T06:15:07;8.52;;;4.05;;
56911;SDS011;42800;53.928;27.662;2022-08-01T06:17:33;6.07;;;4.25;;
56911;SDS011;42800;53.928;27.662;2022-08-01T06:20:00;5.43;;;3.85;;
56911;SDS011;42800;53.928;27.662;2022-08-01T06:22:27;7.22;;;4.07;;
56911;SDS011;42800;53.928;27.662;2022-08-01T06:24:53;7.53;;;4.03;;
56911;SDS011;42800;53.928;27.662;2022-08-01T06:27:19;6.28;;;4.40;;
56911;SDS011;42800;53.928;27.662;2022-08-01T06:29:46;6.57;;;3.88;;
56911;SDS011;42800;53.928;27.662;2022-08-01T06:32:12;6.78;;;4.00;;
56911;SDS011;42800;53.928;27.662;2022-08-01T06:34:38;9.98;;;4.07;;
56911;SDS011;42800;53.928;27.662;2022-08-01T06:37:05;7.25;;;4.32;;
56911;SDS011;42800;53.928;27.662;2022-08-01T06:39:32;6.03;;;3.83;;
56911;SDS011;42800;53.928;27.662;2022-08-01T06:41:58;6.78;;;3.92;;
56911;SDS011;42800;53.928;27.662;2022-08-01T06:44:24;6.63;;;3.67;;
56911;SDS011;42800;53.928;27.662;2022-08-01T06:46:50;6.05;;;3.78;;
56911;SDS011;42800;53.928;27.662;2022-08-01T06:49:16;7.07;;;4.28;;
56911;SDS011;42800;53.928;27.662;2022-08-01T06:51:43;7.05;;;4.20;;
56911;SDS011;42800;53.928;27.662;2022-08-01T06:54:10;5.93;;;4.38;;
56911;SDS011;42800;53.928;27.662;2022-08-01T06:56:36;6.72;;;3.97;;
56911;SDS011;42800;53.928;27.662;2022-08-01T06:59:02;5.25;;;4.00;;
56911;SDS011;42800;53.928;27.662;2022-08-01T07:01:28;7.25;;;4.53;;
56911;SDS011;42800;53.928;27.662;2022-08-01T07:03:55;6.30;;;3.65;;
56911;SDS011;42800;53.928;27.662;2022-08-01T07:06:22;7.30;;;3.78;;
56911;SDS011;42800;53.928;27.662;2022-08-01T07:08:49;8.48;;;3.47;;
56911;SDS011;42800;53.928;27.662;2022-08-01T07:11:16;4.75;;;4.28;;
56911;SDS011;42800;53.928;27.662;2022-08-01T07:13:43;10.02;;;4.03;;
56911;SDS011;42800;53.928;27.662;2022-08-01T07:16:10;4.63;;;3.85;;
56911;SDS011;42800;53.928;27.662;2022-08-01T07:18:37;6.20;;;3.90;;
56911;SDS011;42800;53.928;27.662;2022-08-01T07:21:03;7.55;;;3.92;;
56911;SDS011;42800;53.928;27.662;2022-08-01T07:23:29;4.10;;;3.70;;
56911;SDS011;42800;53.928;27.662;2022-08-01T07:25:55;10.07;;;4.53;;
56911;SDS011;42800;53.928;27.662;2022-08-01T07:28:22;15.00;;;3.92;;
56911;SDS011;42800;53.928;27.662;2022-08-01T07:30:49;9.98;;;4.40;;
56911;SDS011;42800;53.928;27.662;2022-08-01T07:33:15;5.28;;;3.67;;
56911;SDS011;42800;53.928;27.662;2022-08-01T07:35:41;5.65;;;3.85;;
56911;SDS011;42800;53.928;27.662;2022-08-01T07:38:07;9.75;;;5.30;;
56911;SDS011;42800;53.928;27.662;2022-08-01T07:40:34;4.95;;;3.78;;
56911;SDS011;42800;53.928;27.662;2022-08-01T07:43:00;8.68;;;4.38;;
56911;SDS011;42800;53.928;27.662;2022-08-01T07:45:27;7.78;;;4.00;;
56911;SDS011;42800;53.928;27.662;2022-08-01T07:47:53;5.97;;;3.92;;
56911;SDS011;42800;53.928;27.662;2022-08-01T07:50:19;5.57;;;3.70;;
56911;SDS011;42800;53.928;27.662;2022-08-01T07:52:45;11.10;;;4.00;;
56911;SDS011;42800;53.928;27.662;2022-08-01T07:55:12;12.80;;;4.20;;
56911;SDS011;42800;53.928;27.662;2022-08-01T07:57:38;4.78;;;4.05;;
56911;SDS011;42800;53.928;27.662;2022-08-01T08:00:05;12.52;;;3.97;;
56911;SDS011;42800;53.928;27.662;2022-08-01T08:02:34;8.02;;;4.13;;
56911;SDS011;42800;53.928;27.662;2022-08-01T08:05:00;9.77;;;4.40;;
56911;SDS011;42800;53.928;27.662;2022-08-01T08:07:28;5.75;;;3.45;;
56911;SDS011;42800;53.928;27.662;2022-08-01T08:09:55;6.10;;;3.35;;
56911;SDS011;42800;53.928;27.662;2022-08-01T08:12:21;7.22;;;3.92;;
56911;SDS011;42800;53.928;27.662;2022-08-01T08:14:47;8.13;;;4.00;;
56911;SDS011;42800;53.928;27.662;2022-08-01T08:17:14;6.15;;;3.00;;
56911;SDS011;42800;53.928;27.662;2022-08-01T08:19:41;8.55;;;3.17;;
56911;SDS011;42800;53.928;27.662;2022-08-01T08:22:07;7.10;;;3.67;;
56911;SDS011;42800;53.928;27.662;2022-08-01T08:24:34;13.18;;;3.72;;
56911;SDS011;42800;53.928;27.662;2022-08-01T08:27:01;7.05;;;3.30;;
56911;SDS011;42800;53.928;27.662;2022-08-01T08:29:28;7.70;;;3.25;;
56911;SDS011;42800;53.928;27.662;2022-08-01T08:31:57;5.28;;;3.30;;
56911;SDS011;42800;53.928;27.662;2022-08-01T08:34:24;4.50;;;3.90;;
56911;SDS011;42800;53.928;27.662;2022-08-01T08:36:52;8.25;;;3.28;;
56911;SDS011;42800;53.928;27.662;2022-08-01T08:39:19;6.93;;;3.00;;
56911;SDS011;42800;53.928;27.662;2022-08-01T08:41:46;6.15;;;2.95;;
56911;SDS011;42800;53.928;27.662;2022-08-01T08:44:13;7.95;;;2.88;;
56911;SDS011;42800;53.928;27.662;2022-08-01T08:46:41;6.63;;;2.90;;
56911;SDS011;42800;53.928;27.662;2022-08-01T08:49:09;11.80;;;2.90;;
56911;SDS011;42800;53.928;27.662;2022-08-01T08:51:38;7.47;;;3.05;;
56911;SDS011;42800;53.928;27.662;2022-08-01T08:54:06;4.82;;;2.78;;
56911;SDS011;42800;53.928;27.662;2022-08-01T08:56:33;3.53;;;2.30;;
56911;SDS011;42800;53.928;27.662;2022-08-01T08:59:00;5.75;;;2.30;;
56911;SDS011;42800;53.928;27.662;2022-08-01T09:01:28;6.28;;;2.60;;
56911;SDS011;42800;53.928;27.662;2022-08-01T09:03:57;11.32;;;2.70;;
56911;SDS011;42800;53.928;27.662;2022-08-01T09:06:24;6.85;;;2.40;;
56911;SDS011;42800;53.928;27.662;2022-08-01T09:08:50;5.15;;;2.53;;
56911;SDS011;42800;53.928;27.662;2022-08-01T09:11:17;6.28;;;2.10;;
56911;SDS011;42800;53.928;27.662;2022-08-01T09:13:45;6.50;;;2.00;;
56911;SDS011;42800;53.928;27.662;2022-08-01T09:16:27;6.28;;;2.33;;
56911;SDS011;42800;53.928;27.662;2022-08-01T09:18:54;6.05;;;2.35;;
56911;SDS011;42800;53.928;27.662;2022-08-01T09:21:32;6.30;;;2.17;;
56911;SDS011;42800;53.928;27.662;2022-08-01T09:23:59;2.85;;;2.15;;
56911;SDS011;42800;53.928;27.662;2022-08-01T09:26:29;7.20;;;2.65;;
56911;SDS011;42800;53.928;27.662;2022-08-01T09:28:57;8.25;;;2.25;;
56911;SDS011;42800;53.928;27.662;2022-08-01T09:31:25;4.22;;;2.20;;
56911;SDS011;42800;53.928;27.662;2022-08-01T09:33:53;6.10;;;2.20;;
56911;SDS011;42800;53.928;27.662;2022-08-01T09:36:21;5.90;;;2.42;;
56911;SDS011;42800;53.928;27.662;2022-08-01T09:38:48;8.00;;;2.50;;
56911;SDS011;42800;53.928;27.662;2022-08-01T09:41:15;10.30;;;2.20;;
56911;SDS011;42800;53.928;27.662;2022-08-01T09:43:47;5.10;;;1.88;;
56911;SDS011;42800;53.928;27.662;2022-08-01T09:48:41;4.78;;;2.10;;
56911;SDS011;42800;53.928;27.662;2022-08-01T09:51:27;5.18;;;2.00;;
56911;SDS011;42800;53.928;27.662;2022-08-01T09:53:54;3.92;;;1.95;;
56911;SDS011;42800;53.928;27.662;2022-08-01T09:56:21;5.88;;;2.13;;
56911;SDS011;42800;53.928;27.662;2022-08-01T09:58:52;8.25;;;2.00;;
56911;SDS011;42800;53.928;27.662;2022-08-01T10:01:20;5.30;;;2.00;;
56911;SDS011;42800;53.928;27.662;2022-08-01T10:03:47;5.88;;;2.22;;
56911;SDS011;42800;53.928;27.662;2022-08-01T10:06:30;4.45;;;2.00;;
56911;SDS011;42800;53.928;27.662;2022-08-01T10:08:57;3.53;;;2.10;;
56911;SDS011;42800;53.928;27.662;2022-08-01T10:11:23;2.97;;;1.50;;
56911;SDS011;42800;53.928;27.662;2022-08-01T10:13:50;6.72;;;2.20;;
56911;SDS011;42800;53.928;27.662;2022-08-01T10:16:17;4.07;;;2.13;;
56911;SDS011;42800;53.928;27.662;2022-08-01T10:18:44;3.97;;;2.00;;
56911;SDS011;42800;53.928;27.662;2022-08-01T10:21:12;8.82;;;2.08;;
56911;SDS011;42800;53.928;27.662;2022-08-01T10:23:38;5.57;;;2.03;;
56911;SDS011;42800;53.928;27.662;2022-08-01T10:26:07;3.58;;;1.92;;
56911;SDS011;42800;53.928;27.662;2022-08-01T10:28:35;2.95;;;1.77;;
56911;SDS011;42800;53.928;27.662;2022-08-01T10:31:03;3.70;;;2.20;;
56911;SDS011;42800;53.928;27.662;2022-08-01T10:33:32;6.60;;;2.20;;
56911;SDS011;42800;53.928;27.662;2022-08-01T10:36:01;3.83;;;2.30;;
56911;SDS011;42800;53.928;27.662;2022-08-01T10:38:28;4.05;;;2.15;;
56911;SDS011;42800;53.928;27.662;2022-08-01T10:40:54;2.80;;;2.20;;
56911;SDS011;42800;53.928;27.662;2022-08-01T10:43:22;6.85;;;2.00;;
56911;SDS011;42800;53.928;27.662;2022-08-01T10:45:48;4.70;;;2.08;;
56911;SDS011;42800;53.928;27.662;2022-08-01T10:48:18;3.97;;;1.70;;
56911;SDS011;42800;53.928;27.662;2022-08-01T10:50:49;6.53;;;1.90;;
56911;SDS011;42800;53.928;27.662;2022-08-01T10:53:19;6.68;;;2.22;;
56911;SDS011;42800;53.928;27.662;2022-08-01T10:55:47;2.08;;;1.95;;
56911;SDS011;42800;53.928;27.662;2022-08-01T10:58:22;7.47;;;2.00;;
56911;SDS011;42800;53.928;27.662;2022-08-01T11:03:55;6.80;;;2.72;;
56911;SDS011;42800;53.928;27.662;2022-08-01T11:06:41;7.70;;;2.77;;
56911;SDS011;42800;53.928;27.662;2022-08-01T11:09:17;4.28;;;2.20;;
56911;SDS011;42800;53.928;27.662;2022-08-01T11:12:03;8.50;;;3.13;;
56911;SDS011;42800;53.928;27.662;2022-08-01T11:14:32;4.82;;;2.17;;
56911;SDS011;42800;53.928;27.662;2022-08-01T11:20:03;2.63;;;1.75;;
56911;SDS011;42800;53.928;27.662;2022-08-01T11:22:31;7.38;;;2.25;;
56911;SDS011;42800;53.928;27.662;2022-08-01T11:24:57;6.78;;;2.00;;
56911;SDS011;42800;53.928;27.662;2022-08-01T11:27:25;5.75;;;2.42;;
56911;SDS011;42800;53.928;27.662;2022-08-01T11:32:47;7.53;;;2.15;;
56911;SDS011;42800;53.928;27.662;2022-08-01T11:35:15;4.78;;;2.30;;
56911;SDS011;42800;53.928;27.662;2022-08-01T11:37:43;4.22;;;2.05;;
56911;SDS011;42800;53.928;27.662;2022-08-01T11:40:16;5.55;;;2.17;;
56911;SDS011;42800;53.928;27.662;2022-08-01T11:42:44;11.38;;;3.65;;
56911;SDS011;42800;53.928;27.662;2022-08-01T11:45:10;5.97;;;2.38;;
56911;SDS011;42800;53.928;27.662;2022-08-01T11:47:43;5.93;;;2.45;;
56911;SDS011;42800;53.928;27.662;2022-08-01T11:53:03;4.88;;;2.17;;
56911;SDS011;42800;53.928;27.662;2022-08-01T11:55:31;6.68;;;2.20;;
56911;SDS011;42800;53.928;27.662;2022-08-01T11:58:00;3.55;;;1.92;;
56911;SDS011;42800;53.928;27.662;2022-08-01T12:00:26;8.50;;;2.28;;
56911;SDS011;42800;53.928;27.662;2022-08-01T12:02:59;4.10;;;2.22;;
56911;SDS011;42800;53.928;27.662;2022-08-01T12:05:26;4.60;;;2.65;;
56911;SDS011;42800;53.928;27.662;2022-08-01T12:07:54;4.65;;;2.42;;
56911;SDS011;42800;53.928;27.662;2022-08-01T12:10:22;5.88;;;2.17;;
56911;SDS011;42800;53.928;27.662;2022-08-01T12:12:50;7.57;;;2.60;;
56911;SDS011;42800;53.928;27.662;2022-08-01T12:15:18;6.13;;;1.92;;
56911;SDS011;42800;53.928;27.662;2022-08-01T12:17:45;6.75;;;2.58;;
56911;SDS011;42800;53.928;27.662;2022-08-01T12:20:14;4.10;;;2.20;;
56911;SDS011;42800;53.928;27.662;2022-08-01T12:22:42;3.08;;;2.28;;
56911;SDS011;42800;53.928;27.662;2022-08-01T12:25:09;3.25;;;2.17;;
56911;SDS011;42800;53.928;27.662;2022-08-01T12:27:38;6.05;;;2.10;;
56911;SDS011;42800;53.928;27.662;2022-08-01T12:30:06;3.67;;;1.77;;
56911;SDS011;42800;53.928;27.662;2022-08-01T12:32:34;3.17;;;2.22;;
56911;SDS011;42800;53.928;27.662;2022-08-01T12:35:02;2.15;;;1.73;;
56911;SDS011;42800;53.928;27.662;2022-08-01T12:37:30;6.75;;;2.45;;
56911;SDS011;42800;53.928;27.662;2022-08-01T12:39:57;4.22;;;2.55;;
56911;SDS011;42800;53.928;27.662;2022-08-01T12:42:24;6.95;;;1.88;;
56911;SDS011;42800;53.928;27.662;2022-08-01T12:44:52;3.20;;;2.20;;
56911;SDS011;42800;53.928;27.662;2022-08-01T12:47:19;5.70;;;2.00;;
56911;SDS011;42800;53.928;27.662;2022-08-01T12:49:47;5.10;;;2.65;;
56911;SDS011;42800;53.928;27.662;2022-08-01T12:52:14;6.25;;;2.13;;
56911;SDS011;42800;53.928;27.662;2022-08-01T12:55:02;6.07;;;1.98;;
56911;SDS011;42800;53.928;27.662;2022-08-01T12:57:31;7.40;;;2.00;;
56911;SDS011;42800;53.928;27.662;2022-08-01T13:00:12;2.63;;;1.85;;
56911;SDS011;42800;53.928;27.662;2022-08-01T13:02:40;6.03;;;2.30;;
56911;SDS011;42800;53.928;27.662;2022-08-01T13:05:07;8.75;;;2.40;;
56911;SDS011;42800;53.928;27.662;2022-08-01T13:07:35;10.00;;;3.00;;
56911;SDS011;42800;53.928;27.662;2022-08-01T13:10:06;9.23;;;2.42;;
56911;SDS011;42800;53.928;27.662;2022-08-01T13:12:34;5.90;;;2.10;;
56911;SDS011;42800;53.928;27.662;2022-08-01T13:17:47;13.85;;;4.15;;
56911;SDS011;42800;53.928;27.662;2022-08-01T13:20:23;2.92;;;2.13;;
56911;SDS011;42800;53.928;27.662;2022-08-01T13:22:50;4.93;;;2.22;;
56911;SDS011;42800;53.928;27.662;2022-08-01T13:25:17;11.15;;;2.83;;
56911;SDS011;42800;53.928;27.662;2022-08-01T13:27:43;4.85;;;1.98;;
56911;SDS011;42800;53.928;27.662;2022-08-01T13:30:10;3.55;;;2.10;;
56911;SDS011;42800;53.928;27.662;2022-08-01T13:32:38;10.40;;;2.35;;
56911;SDS011;42800;53.928;27.662;2022-08-01T13:35:06;4.22;;;2.60;;
56911;SDS011;42800;53.928;27.662;2022-08-01T13:37:34;7.55;;;2.20;;
56911;SDS011;42800;53.928;27.662;2022-08-01T13:40:00;8.75;;;2.90;;
56911;SDS011;42800;53.928;27.662;2022-08-01T13:42:26;6.25;;;2.45;;
56911;SDS011;42800;53.928;27.662;2022-08-01T13:44:54;5.30;;;2.03;;
56911;SDS011;42800;53.928;27.662;2022-08-01T13:47:20;4.93;;;2.08;;
56911;SDS011;42800;53.928;27.662;2022-08-01T13:49:47;3.53;;;1.90;;
56911;SDS011;42800;53.928;27.662;2022-08-01T13:52:13;5.30;;;2.70;;
56911;SDS011;42800;53.928;27.662;2022-08-01T13:54:39;9.65;;;2.50;;
56911;SDS011;42800;53.928;27.662;2022-08-01T13:57:06;4.45;;;2.03;;
56911;SDS011;42800;53.928;27.662;2022-08-01T13:59:33;4.45;;;2.00;;
56911;SDS011;42800;53.928;27.662;2022-08-01T14:01:59;7.10;;;2.22;;
56911;SDS011;42800;53.928;27.662;2022-08-01T14:04:25;6.03;;;2.25;;
56911;SDS011;42800;53.928;27.662;2022-08-01T14:06:52;4.72;;;2.17;;
56911;SDS011;42800;53.928;27.662;2022-08-01T14:09:18;5.45;;;2.83;;
56911;SDS011;42800;53.928;27.662;2022-08-01T14:11:47;5.40;;;2.55;;
56911;SDS011;42800;53.928;27.662;2022-08-01T14:14:14;4.40;;;1.90;;
56911;SDS011;42800;53.928;27.662;2022-08-01T14:16:41;4.78;;;2.53;;
56911;SDS011;42800;53.928;27.662;2022-08-01T14:19:09;2.22;;;2.00;;
56911;SDS011;42800;53.928;27.662;2022-08-01T14:21:35;4.95;;;2.00;;
56911;SDS011;42800;53.928;27.662;2022-08-01T14:24:02;3.90;;;1.75;;
56911;SDS011;42800;53.928;27.662;2022-08-01T14:26:29;10.45;;;2.75;;
56911;SDS011;42800;53.928;27.662;2022-08-01T14:28:55;8.77;;;2.00;;
56911;SDS011;42800;53.928;27.662;2022-08-01T14:31:21;4.75;;;2.20;;
56911;SDS011;42800;53.928;27.662;2022-08-01T14:33:47;5.93;;;2.00;;
56911;SDS011;42800;53.928;27.662;2022-08-01T14:36:14;5.75;;;1.98;;
56911;SDS011;42800;53.928;27.662;2022-08-01T14:38:40;3.55;;;2.50;;
56911;SDS011;42800;53.928;27.662;2022-08-01T14:41:07;2.78;;;2.03;;
56911;SDS011;42800;53.928;27.662;2022-08-01T14:43:33;5.50;;;2.00;;
56911;SDS011;42800;53.928;27.662;2022-08-01T14:45:59;6.40;;;2.17;;
56911;SDS011;42800;53.928;27.662;2022-08-01T14:48:26;7.03;;;3.50;;
56911;SDS011;42800;53.928;27.662;2022-08-01T14:50:52;9.65;;;3.20;;
56911;SDS011;42800;53.928;27.662;2022-08-01T14:53:19;8.43;;;4.25;;
56911;SDS011;42800;53.928;27.662;2022-08-01T14:55:45;12.40;;;4.82;;
56911;SDS011;42800;53.928;27.662;2022-08-01T14:58:12;10.48;;;5.50;;
56911;SDS011;42800;53.928;27.662;2022-08-01T15:00:39;10.70;;;5.30;;
56911;SDS011;42800;53.928;27.662;2022-08-01T15:03:05;13.35;;;9.65;;